Terminal Aerodrome Forecast
Issued by NWS

Home | Current Version | Previous Version | Text Only | Print | Product List | Glossary On
Versions: 1 2 3 4 5 6 7 8 9 10 11 12 13 14 15 16
274
FTUS42 KTBW 132321
TAFLAL
TAF
KLAL 132321Z 1400/1424 34007KT P6SM SKC
     FM140300 02007KT P6SM SKC
     FM141500 06009KT P6SM FEW250
     FM142300 09008KT P6SM FEW025 SCT250
      AMD NOT SKED 1403/1412=

USA.gov is the U.S. government's official web portal to all federal, state and local government web resources and services.